createdAt,value
2024-03-02T00:00:09.282Z,6.50
2024-03-02T00:02:44.769Z,6.50
2024-03-02T00:05:16.713Z,6.50
2024-03-02T00:07:44.867Z,6.50
2024-03-02T00:10:15.315Z,6.50
2024-03-02T00:12:43.116Z,6.50
2024-03-02T00:15:37.813Z,6.50
2024-03-02T00:18:04.864Z,6.50
2024-03-02T00:20:32.048Z,6.50
2024-03-02T00:23:05.139Z,6.50
2024-03-02T00:25:40.402Z,6.50
2024-03-02T00:28:11.468Z,6.50
2024-03-02T00:30:57.302Z,6.40
2024-03-02T00:33:25.025Z,6.40
2024-03-02T00:35:52.234Z,6.40
2024-03-02T00:38:19.178Z,6.40
2024-03-02T00:40:46.720Z,6.40
2024-03-02T00:43:39.281Z,6.30
2024-03-02T00:46:06.031Z,6.30
2024-03-02T00:48:32.978Z,6.30
2024-03-02T00:50:59.684Z,6.30
2024-03-02T00:53:27.664Z,6.30
2024-03-02T00:55:54.537Z,6.30
2024-03-02T00:58:21.180Z,6.20
2024-03-02T01:00:48.069Z,6.20
2024-03-02T01:03:14.858Z,6.20
2024-03-02T01:05:44.524Z,6.20
2024-03-02T01:08:11.825Z,6.20
2024-03-02T01:10:38.536Z,6.20
2024-03-02T01:13:05.208Z,6.20
2024-03-02T01:15:31.949Z,6.20
2024-03-02T01:17:58.723Z,6.20
2024-03-02T01:20:25.392Z,6.20
2024-03-02T01:22:52.089Z,6.20
2024-03-02T01:25:18.803Z,6.10
2024-03-02T01:27:47.553Z,6.10
2024-03-02T01:30:16.104Z,6.10
2024-03-02T01:32:42.908Z,6.10
2024-03-02T01:35:09.604Z,6.10
2024-03-02T01:37:36.242Z,6.10
2024-03-02T01:40:03.005Z,6.10
2024-03-02T01:42:29.695Z,6.10
2024-03-02T01:44:56.412Z,6.10
2024-03-02T01:47:23.105Z,6.10
2024-03-02T01:49:49.779Z,6.10
2024-03-02T01:52:16.607Z,6.10
2024-03-02T01:54:43.325Z,6.10
2024-03-02T01:57:09.995Z,6.10
2024-03-02T01:59:36.799Z,6.20
2024-03-02T02:02:03.465Z,6.20
2024-03-02T02:04:30.184Z,6.20
2024-03-02T02:06:56.972Z,6.20
2024-03-02T02:09:23.705Z,6.20
2024-03-02T02:11:52.114Z,6.20
2024-03-02T02:14:19.081Z,6.20
2024-03-02T02:16:45.759Z,6.10
2024-03-02T02:19:12.466Z,6.20
2024-03-02T02:21:39.128Z,6.20
2024-03-02T02:24:06.041Z,6.10
2024-03-02T02:26:32.722Z,6.10
2024-03-02T02:28:59.393Z,6.10
2024-03-02T02:31:26.096Z,6.10
2024-03-02T02:33:52.809Z,6.10
2024-03-02T02:36:19.532Z,6.10
2024-03-02T02:38:49.155Z,6.00
2024-03-02T02:41:15.840Z,6.10
2024-03-02T02:43:42.518Z,6.00
2024-03-02T02:46:09.218Z,6.00
2024-03-02T02:48:35.905Z,6.00
2024-03-02T02:51:02.607Z,6.00
2024-03-02T02:53:29.269Z,5.90
2024-03-02T02:55:55.929Z,6.00
2024-03-02T02:58:22.644Z,6.00
2024-03-02T03:00:49.440Z,6.00
2024-03-02T03:03:16.177Z,6.00
2024-03-02T03:05:42.917Z,6.00
2024-03-02T03:08:09.573Z,6.00
2024-03-02T03:10:36.274Z,6.00
2024-03-02T03:13:03.077Z,6.00
2024-03-02T03:15:29.827Z,6.00
2024-03-02T03:17:56.626Z,6.00
2024-03-02T03:20:23.314Z,6.00
2024-03-02T03:22:49.949Z,6.00
2024-03-02T03:25:16.609Z,6.00
2024-03-02T03:27:43.435Z,6.00
2024-03-02T03:30:10.746Z,5.90
2024-03-02T03:32:37.443Z,5.90
2024-03-02T03:35:05.289Z,6.00
2024-03-02T03:37:32.282Z,5.90
2024-03-02T03:39:59.107Z,5.90
2024-03-02T03:42:25.801Z,5.90
2024-03-02T03:44:52.565Z,5.90
2024-03-02T03:47:19.228Z,5.90
2024-03-02T03:49:45.954Z,5.90
2024-03-02T03:52:12.681Z,5.90
2024-03-02T03:54:39.387Z,5.90
2024-03-02T03:57:06.155Z,5.90
2024-03-02T03:59:32.841Z,5.90
2024-03-02T04:01:59.715Z,5.90
2024-03-02T04:04:26.448Z,5.90
2024-03-02T04:06:53.134Z,6.00
2024-03-02T04:09:19.850Z,5.90
2024-03-02T04:11:46.698Z,5.90
2024-03-02T04:14:13.367Z,5.90
2024-03-02T04:16:40.105Z,5.90
2024-03-02T04:19:06.823Z,5.90
2024-03-02T04:21:33.534Z,5.90
2024-03-02T04:24:00.432Z,5.90
2024-03-02T04:26:27.802Z,5.90
2024-03-02T04:28:54.656Z,5.90
2024-03-02T04:31:21.840Z,5.90
2024-03-02T04:33:48.588Z,5.90
2024-03-02T04:36:15.390Z,5.90
2024-03-02T04:38:42.097Z,5.80
2024-03-02T04:41:09.044Z,5.90
2024-03-02T04:43:36.125Z,5.90
2024-03-02T04:46:03.171Z,5.90
2024-03-02T04:48:30.242Z,5.90
2024-03-02T04:50:56.994Z,5.80
2024-03-02T04:53:23.620Z,5.90
2024-03-02T04:55:50.285Z,5.80
2024-03-02T04:58:16.922Z,5.80
2024-03-02T05:00:43.625Z,5.80
2024-03-02T05:03:10.370Z,5.80
2024-03-02T05:05:37.035Z,5.80
2024-03-02T05:08:03.875Z,5.80
2024-03-02T05:10:30.594Z,5.80
2024-03-02T05:12:57.292Z,5.80
2024-03-02T05:15:23.968Z,5.80
2024-03-02T05:17:50.772Z,5.80
2024-03-02T05:20:17.696Z,5.80
2024-03-02T05:22:44.331Z,5.80
2024-03-02T05:25:11.047Z,5.70
2024-03-02T05:27:37.797Z,5.70
2024-03-02T05:30:04.941Z,5.60
2024-03-02T05:32:31.694Z,5.60
2024-03-02T05:34:58.333Z,5.60
2024-03-02T05:37:25.049Z,5.50
2024-03-02T05:39:51.773Z,5.60
2024-03-02T05:42:18.509Z,5.60
2024-03-02T05:44:45.168Z,5.60
2024-03-02T05:47:11.912Z,5.50
2024-03-02T05:49:39.099Z,5.50
2024-03-02T05:52:06.011Z,5.50
2024-03-02T05:54:32.792Z,5.50
2024-03-02T05:56:59.501Z,5.50
2024-03-02T05:59:26.152Z,5.40
2024-03-02T06:01:53.111Z,5.40
2024-03-02T06:04:19.929Z,5.40
2024-03-02T06:06:46.655Z,5.40
2024-03-02T06:09:13.346Z,5.40
2024-03-02T06:11:41.909Z,5.40
2024-03-02T06:14:09.763Z,5.30
2024-03-02T06:16:36.806Z,5.30
2024-03-02T06:19:03.746Z,5.30
2024-03-02T06:21:31.145Z,5.30
2024-03-02T06:23:58.213Z,5.30
2024-03-02T06:26:26.229Z,5.30
2024-03-02T06:28:53.463Z,5.30
2024-03-02T06:31:20.365Z,5.30
2024-03-02T06:33:47.263Z,5.30
2024-03-02T06:36:13.969Z,5.30
2024-03-02T06:38:43.307Z,5.30
2024-03-02T06:41:10.616Z,5.30
2024-03-02T06:43:37.297Z,5.20
2024-03-02T06:46:04.333Z,5.20
2024-03-02T06:48:31.038Z,5.20
2024-03-02T06:50:57.807Z,5.20
2024-03-02T06:53:24.547Z,5.10
2024-03-02T06:55:51.236Z,5.10
2024-03-02T06:58:17.870Z,5.10
2024-03-02T07:00:44.702Z,5.20
2024-03-02T07:03:11.586Z,5.20
2024-03-02T07:05:38.234Z,5.30
2024-03-02T07:08:05.375Z,5.40
2024-03-02T07:10:32.036Z,5.50
2024-03-02T07:12:58.868Z,5.70
2024-03-02T07:15:25.685Z,5.90
2024-03-02T07:17:52.406Z,6.00
2024-03-02T07:20:19.084Z,6.20
2024-03-02T07:22:45.843Z,6.50
2024-03-02T07:27:42.617Z,6.60
2024-03-02T07:30:09.837Z,6.60
2024-03-02T07:32:36.543Z,6.80
2024-03-02T07:35:03.324Z,6.90
2024-03-02T07:37:30.150Z,6.90
2024-03-02T07:39:56.974Z,6.90
2024-03-02T07:42:23.732Z,7.00
2024-03-02T07:44:50.470Z,7.20
2024-03-02T09:35:55.468Z,9.60
2024-03-02T09:38:22.290Z,9.60
2024-03-02T09:40:48.996Z,9.60
2024-03-02T09:43:15.780Z,9.60
2024-03-02T09:45:42.718Z,9.90
2024-03-02T09:48:09.506Z,9.80
2024-03-02T09:50:36.258Z,9.90
2024-03-02T09:53:02.898Z,10.10
2024-03-02T09:55:29.632Z,10.20
2024-03-02T09:57:56.280Z,10.20
2024-03-02T10:00:22.971Z,10.20
2024-03-02T10:02:49.610Z,10.40
2024-03-02T10:05:28.270Z,10.40
2024-03-02T10:08:02.107Z,10.40
2024-03-02T10:10:42.318Z,10.60
2024-03-02T10:13:13.490Z,10.60
2024-03-02T10:15:41.325Z,10.70
2024-03-02T10:18:12.202Z,10.60
2024-03-02T10:20:40.041Z,10.70
2024-03-02T10:23:14.420Z,10.80
2024-03-02T10:25:47.875Z,10.90
2024-03-02T10:28:21.490Z,10.80
2024-03-02T10:30:49.405Z,10.90
2024-03-02T10:33:16.205Z,10.90
2024-03-02T10:35:44.947Z,10.80
2024-03-02T10:38:12.613Z,10.80
2024-03-02T10:40:39.557Z,10.90
2024-03-02T10:43:07.016Z,10.90
2024-03-02T10:45:34.190Z,11.00
2024-03-02T10:48:03.079Z,11.10
2024-03-02T10:50:30.857Z,11.10
2024-03-02T10:52:57.548Z,11.10
2024-03-02T10:55:24.581Z,11.10
2024-03-02T10:57:55.904Z,11.30
2024-03-02T11:00:25.151Z,11.30
2024-03-02T11:02:56.461Z,11.50
2024-03-02T11:05:37.068Z,11.70
2024-03-02T11:08:08.228Z,11.80
2024-03-02T11:10:38.506Z,11.90
2024-03-02T11:13:10.625Z,11.90
2024-03-02T11:15:37.428Z,12.00
2024-03-02T11:18:08.449Z,12.00
2024-03-02T11:20:39.254Z,12.10
2024-03-02T11:23:07.801Z,12.20
2024-03-02T11:25:34.832Z,12.30
2024-03-02T11:28:03.564Z,12.40
2024-03-02T11:30:33.583Z,12.40
2024-03-02T11:33:05.053Z,12.50
2024-03-02T11:35:31.796Z,12.50
2024-03-02T11:37:58.432Z,12.70
2024-03-02T11:40:26.649Z,12.70
2024-03-02T11:42:54.432Z,12.80
2024-03-02T11:45:30.393Z,12.70
2024-03-02T11:47:59.114Z,13.00
2024-03-02T11:50:35.516Z,13.00
2024-03-02T11:53:03.271Z,13.00
2024-03-02T11:55:31.901Z,12.90
2024-03-02T11:58:00.075Z,12.90
2024-03-02T12:00:26.908Z,12.90
2024-03-02T12:03:10.505Z,12.90
2024-03-02T12:05:37.514Z,13.10
2024-03-02T12:08:06.481Z,13.10
2024-03-02T12:10:33.931Z,13.10
2024-03-02T12:13:02.874Z,13.30
2024-03-02T12:15:32.205Z,13.30
2024-03-02T12:18:00.567Z,13.40
2024-03-02T12:20:29.004Z,13.50
2024-03-02T12:22:57.238Z,13.60
2024-03-02T12:25:25.109Z,13.70
2024-03-02T12:27:54.740Z,13.70
2024-03-02T12:30:22.081Z,13.80
2024-03-02T12:32:49.663Z,13.90
2024-03-02T12:35:18.365Z,14.00
2024-03-02T12:37:52.808Z,14.10
2024-03-02T12:40:21.395Z,14.30
2024-03-02T12:42:48.340Z,14.30
2024-03-02T12:45:15.614Z,14.30
2024-03-02T12:47:43.397Z,14.30
2024-03-02T12:50:11.248Z,14.30
2024-03-02T12:52:38.073Z,14.30
2024-03-02T12:55:06.870Z,14.30
2024-03-02T12:57:34.879Z,14.50
2024-03-02T13:00:06.747Z,14.50
2024-03-02T13:02:33.374Z,14.60
2024-03-02T13:05:00.002Z,14.60
2024-03-02T13:07:27.241Z,14.80
2024-03-02T13:09:57.321Z,14.70
2024-03-02T13:12:25.556Z,14.70
2024-03-02T13:14:55.356Z,14.70
2024-03-02T13:17:22.168Z,14.70
2024-03-02T13:19:58.697Z,14.60
2024-03-02T13:22:26.167Z,14.60
2024-03-02T13:24:53.832Z,14.60
2024-03-02T13:27:20.704Z,14.70
2024-03-02T13:29:48.104Z,14.80
2024-03-02T13:32:18.091Z,14.90
2024-03-02T13:34:45.006Z,15.00
2024-03-02T13:37:11.710Z,15.10
2024-03-02T13:39:38.496Z,15.20
2024-03-02T13:42:05.688Z,15.20
2024-03-02T13:44:32.487Z,15.10
2024-03-02T13:47:01.313Z,15.00
2024-03-02T13:49:28.293Z,15.00
2024-03-02T13:51:55.162Z,14.90
2024-03-02T13:54:21.867Z,15.00
2024-03-02T13:56:48.637Z,15.00
2024-03-02T13:59:15.548Z,14.70
2024-03-02T14:01:42.343Z,14.70
2024-03-02T14:04:09.200Z,14.70
2024-03-02T14:06:35.911Z,14.60
2024-03-02T14:09:02.592Z,14.60
2024-03-02T14:11:29.255Z,14.60
2024-03-02T14:13:55.914Z,14.50
2024-03-02T14:16:22.614Z,14.50
2024-03-02T14:18:49.366Z,14.50
2024-03-02T14:21:16.089Z,14.70
2024-03-02T14:23:42.791Z,14.60
2024-03-02T14:26:09.462Z,14.60
2024-03-02T14:28:48.419Z,14.50
2024-03-02T14:31:17.557Z,14.70
2024-03-02T14:33:44.311Z,14.80
2024-03-02T14:36:11.153Z,14.70
2024-03-02T14:38:38.575Z,14.70
2024-03-02T14:41:05.593Z,14.50
2024-03-02T14:43:32.337Z,14.60
2024-03-02T14:45:59.992Z,14.70
2024-03-02T14:48:26.918Z,14.90
2024-03-02T14:50:53.749Z,14.90
2024-03-02T14:53:20.452Z,14.80
2024-03-02T14:55:47.158Z,14.70
2024-03-02T14:58:13.823Z,14.60
2024-03-02T15:00:40.521Z,14.50
2024-03-02T15:03:07.233Z,14.40
2024-03-02T15:05:34.047Z,14.30
2024-03-02T15:08:00.689Z,14.30
2024-03-02T15:10:27.322Z,14.20
2024-03-02T15:12:54.140Z,14.10
2024-03-02T15:15:20.875Z,14.30
2024-03-02T15:17:47.527Z,14.20
2024-03-02T15:20:14.210Z,14.10
2024-03-02T15:22:41.733Z,13.80
2024-03-02T15:25:08.852Z,14.00
2024-03-02T15:27:35.586Z,13.80
2024-03-02T15:30:02.496Z,13.90
2024-03-02T15:32:29.210Z,13.80
2024-03-02T15:34:56.011Z,14.00
2024-03-02T15:37:22.820Z,13.90
2024-03-02T15:39:49.458Z,13.80
2024-03-02T15:42:16.175Z,13.50
2024-03-02T15:44:44.917Z,13.20
2024-03-02T15:47:11.845Z,13.10
2024-03-02T15:49:38.511Z,13.00
2024-03-02T15:52:05.401Z,12.90
2024-03-02T15:54:32.154Z,12.80
2024-03-02T15:56:59.208Z,12.50
2024-03-02T15:59:25.889Z,12.60
2024-03-02T16:01:52.766Z,12.40
2024-03-02T16:04:19.556Z,12.40
2024-03-02T16:06:46.404Z,12.30
2024-03-02T16:09:13.188Z,12.20
2024-03-02T16:11:39.868Z,12.00
2024-03-02T16:14:06.601Z,11.90
2024-03-02T16:16:33.261Z,12.00
2024-03-02T16:18:59.950Z,11.70
2024-03-02T16:21:26.676Z,11.70
2024-03-02T16:23:53.330Z,11.70
2024-03-02T16:26:20.024Z,11.60
2024-03-02T16:28:46.685Z,11.50
2024-03-02T16:31:13.350Z,11.60
2024-03-02T16:33:41.921Z,11.40
2024-03-02T16:36:09.823Z,11.50
2024-03-02T16:38:36.523Z,11.40
2024-03-02T16:41:03.299Z,11.30
2024-03-02T16:43:29.967Z,11.30
2024-03-02T16:45:57.159Z,11.20
2024-03-02T16:48:23.851Z,11.00
2024-03-02T16:50:50.651Z,11.00
2024-03-02T16:53:17.350Z,10.90
2024-03-02T16:55:44.216Z,10.90
2024-03-02T16:58:11.010Z,10.90
2024-03-02T17:00:37.725Z,10.70
2024-03-02T17:03:04.932Z,10.80
2024-03-02T17:05:31.612Z,10.60
2024-03-02T17:07:58.241Z,10.70
2024-03-02T17:10:24.982Z,10.60
2024-03-02T17:12:51.794Z,10.60
2024-03-02T17:15:18.429Z,10.60
2024-03-02T17:17:45.166Z,10.40
2024-03-02T17:20:12.007Z,10.40
2024-03-02T17:22:38.715Z,10.40
2024-03-02T17:25:06.010Z,10.40
2024-03-02T17:27:32.822Z,10.20
2024-03-02T17:29:59.657Z,10.20
2024-03-02T17:32:26.542Z,10.10
2024-03-02T17:34:53.280Z,10.10
2024-03-02T17:37:19.999Z,10.10
2024-03-02T17:39:46.782Z,10.10
2024-03-02T17:42:13.541Z,9.90
2024-03-02T17:44:40.232Z,10.00
2024-03-02T17:47:07.245Z,10.00
2024-03-02T17:49:33.936Z,9.80
2024-03-02T17:52:00.644Z,9.90
2024-03-02T17:54:27.351Z,9.80
2024-03-02T17:56:54.023Z,9.80
2024-03-02T17:59:20.675Z,9.80
2024-03-02T18:01:47.348Z,9.70
2024-03-02T18:04:14.112Z,9.60
2024-03-02T18:06:40.780Z,9.60
2024-03-02T18:09:07.492Z,9.60
2024-03-02T18:11:34.194Z,9.60
2024-03-02T18:14:01.040Z,9.50
2024-03-02T18:16:27.758Z,9.40
2024-03-02T18:18:54.661Z,9.40
2024-03-02T18:21:21.427Z,9.30
2024-03-02T18:23:48.072Z,9.30
2024-03-02T18:26:14.710Z,9.50
2024-03-02T18:28:41.455Z,9.40
2024-03-02T18:31:08.275Z,9.40
2024-03-02T18:33:35.175Z,9.30
2024-03-02T18:36:01.916Z,9.30
2024-03-02T18:38:28.581Z,9.30
2024-03-02T18:40:55.260Z,9.20
2024-03-02T18:43:21.881Z,9.20
2024-03-02T18:45:48.565Z,9.20
2024-03-02T18:48:15.386Z,9.20
2024-03-02T18:50:42.083Z,9.20
2024-03-02T18:53:11.498Z,9.20
2024-03-02T18:55:40.085Z,9.20
2024-03-02T18:58:06.929Z,9.20
2024-03-02T19:00:33.772Z,9.10
2024-03-02T19:03:00.590Z,9.00
2024-03-02T19:05:27.294Z,9.00
2024-03-02T19:07:53.945Z,8.90
2024-03-02T19:10:20.628Z,8.90
2024-03-02T19:12:47.358Z,8.90
2024-03-02T19:15:14.156Z,8.90
2024-03-02T19:17:40.851Z,8.90
2024-03-02T19:20:08.224Z,9.00
2024-03-02T19:22:35.041Z,8.90
2024-03-02T19:25:02.054Z,8.80
2024-03-02T19:27:29.042Z,8.70
2024-03-02T19:29:55.663Z,8.70
2024-03-02T19:32:22.320Z,8.60
2024-03-02T19:34:49.821Z,8.60
2024-03-02T19:37:16.513Z,8.70
2024-03-02T19:39:43.348Z,8.60
2024-03-02T19:42:10.271Z,8.60
2024-03-02T19:44:37.023Z,8.60
2024-03-02T19:47:03.968Z,8.60
2024-03-02T19:49:30.780Z,8.60
2024-03-02T19:51:57.727Z,8.50
2024-03-02T19:54:24.416Z,8.50
2024-03-02T19:56:51.239Z,8.50
2024-03-02T19:59:18.118Z,8.50
2024-03-02T20:01:45.017Z,8.40
2024-03-02T20:04:11.846Z,8.40
2024-03-02T20:06:38.633Z,8.40
2024-03-02T20:09:05.640Z,8.40
2024-03-02T20:11:32.710Z,8.30
2024-03-02T20:13:59.424Z,8.30
2024-03-02T20:16:26.367Z,8.30
2024-03-02T20:18:53.052Z,8.30
2024-03-02T20:21:19.700Z,8.30
2024-03-02T20:23:46.394Z,8.30
2024-03-02T20:26:13.047Z,8.20
2024-03-02T20:28:39.681Z,8.20
2024-03-02T20:31:06.452Z,8.20
2024-03-02T20:33:33.913Z,8.10
2024-03-02T20:36:00.668Z,8.10
2024-03-02T20:38:27.504Z,8.00
2024-03-02T20:40:54.178Z,8.00
2024-03-02T20:43:20.952Z,8.00
2024-03-02T20:45:47.727Z,8.00
2024-03-02T20:48:14.482Z,8.00
2024-03-02T20:50:41.197Z,7.90
2024-03-02T20:53:07.873Z,7.90
2024-03-02T20:55:34.938Z,7.80
2024-03-02T20:58:01.643Z,7.80
2024-03-02T21:00:28.392Z,7.80
2024-03-02T21:02:55.072Z,7.90
2024-03-02T21:05:21.716Z,7.80
2024-03-02T21:07:48.394Z,7.80
2024-03-02T21:10:15.106Z,7.80
2024-03-02T21:12:41.811Z,7.90
2024-03-02T21:15:08.768Z,7.80
2024-03-02T21:17:35.383Z,7.70
2024-03-02T21:20:02.080Z,7.70
2024-03-02T21:22:28.735Z,7.70
2024-03-02T21:24:55.432Z,7.60
2024-03-02T21:27:22.081Z,7.60
2024-03-02T21:29:48.713Z,7.60
2024-03-02T21:32:15.367Z,7.50
2024-03-02T21:34:42.055Z,7.50
2024-03-02T21:37:08.755Z,7.50
2024-03-02T21:39:39.852Z,7.40
2024-03-02T21:42:13.397Z,7.40
2024-03-02T21:44:40.069Z,7.40
2024-03-02T21:47:07.550Z,7.30
2024-03-02T21:49:34.521Z,7.30
2024-03-02T21:52:01.197Z,7.30
2024-03-02T21:54:27.895Z,7.30
2024-03-02T21:56:54.548Z,7.20
2024-03-02T21:59:21.165Z,7.20
2024-03-02T22:01:47.956Z,7.20
2024-03-02T22:04:14.779Z,7.10
2024-03-02T22:06:41.487Z,7.00
2024-03-02T22:09:08.104Z,7.00
2024-03-02T22:11:34.814Z,7.10
2024-03-02T22:14:01.575Z,7.00
2024-03-02T22:16:28.211Z,7.00
2024-03-02T22:18:54.895Z,7.10
2024-03-02T22:21:21.590Z,7.10
2024-03-02T22:23:48.201Z,7.00
2024-03-02T22:26:15.998Z,7.00
2024-03-02T22:28:42.849Z,6.90
2024-03-02T22:31:09.554Z,6.90
2024-03-02T22:33:36.342Z,6.90
2024-03-02T22:36:03.165Z,6.90
2024-03-02T22:38:29.811Z,6.90
2024-03-02T22:40:56.502Z,6.90
2024-03-02T22:43:23.217Z,6.90
2024-03-02T22:45:49.904Z,6.90
2024-03-02T22:48:16.591Z,6.90
2024-03-02T22:50:43.406Z,6.90
2024-03-02T22:53:10.078Z,6.80
2024-03-02T22:55:36.740Z,6.70
2024-03-02T22:58:03.446Z,6.70
2024-03-02T23:00:30.076Z,6.70
2024-03-02T23:02:56.807Z,6.60
2024-03-02T23:05:23.741Z,6.60
2024-03-02T23:07:50.387Z,6.60
2024-03-02T23:10:17.142Z,6.60
2024-03-02T23:12:43.937Z,6.70
2024-03-02T23:15:10.705Z,6.60
2024-03-02T23:17:37.443Z,6.50
2024-03-02T23:20:04.481Z,6.50
2024-03-02T23:22:31.117Z,6.40
2024-03-02T23:24:57.826Z,6.30
2024-03-02T23:27:24.526Z,6.30
2024-03-02T23:29:51.224Z,6.30
2024-03-02T23:32:17.874Z,6.30
2024-03-02T23:34:44.496Z,6.20
2024-03-02T23:37:11.218Z,6.30
2024-03-02T23:39:38.481Z,6.20
2024-03-02T23:42:05.330Z,6.10
2024-03-02T23:44:32.057Z,6.30
2024-03-02T23:46:58.834Z,6.30
2024-03-02T23:49:25.508Z,6.20
2024-03-02T23:51:52.193Z,6.20
2024-03-02T23:54:18.945Z,6.20
2024-03-02T23:56:45.787Z,6.10
2024-03-02T23:59:12.699Z,6.20
